sensor_id;sensor_type;location;lat;lon;timestamp;P1;durP1;ratioP1;P2;durP2;ratioP2
75169;SDS011;63749;49.186;9.222;2023-09-12T00:00:52;17.53;;;8.27;;
75169;SDS011;63749;49.186;9.222;2023-09-12T00:03:19;17.87;;;8.73;;
75169;SDS011;63749;49.186;9.222;2023-09-12T00:05:55;17.08;;;8.70;;
75169;SDS011;63749;49.186;9.222;2023-09-12T00:08:21;15.93;;;8.50;;
75169;SDS011;63749;49.186;9.222;2023-09-12T00:10:54;18.80;;;8.88;;
75169;SDS011;63749;49.186;9.222;2023-09-12T00:13:35;20.63;;;8.73;;
75169;SDS011;63749;49.186;9.222;2023-09-12T00:16:00;15.07;;;8.27;;
75169;SDS011;63749;49.186;9.222;2023-09-12T00:18:26;18.55;;;9.02;;
75169;SDS011;63749;49.186;9.222;2023-09-12T00:20:52;19.00;;;9.80;;
75169;SDS011;63749;49.186;9.222;2023-09-12T00:23:18;18.30;;;9.70;;
75169;SDS011;63749;49.186;9.222;2023-09-12T00:25:43;20.23;;;10.32;;
75169;SDS011;63749;49.186;9.222;2023-09-12T00:28:09;18.57;;;10.47;;
75169;SDS011;63749;49.186;9.222;2023-09-12T00:30:34;20.60;;;10.33;;
75169;SDS011;63749;49.186;9.222;2023-09-12T00:32:59;20.10;;;10.07;;
75169;SDS011;63749;49.186;9.222;2023-09-12T00:35:26;23.57;;;10.43;;
75169;SDS011;63749;49.186;9.222;2023-09-12T00:37:51;21.58;;;10.20;;
75169;SDS011;63749;49.186;9.222;2023-09-12T00:40:17;23.60;;;10.90;;
75169;SDS011;63749;49.186;9.222;2023-09-12T00:42:42;24.77;;;11.30;;
75169;SDS011;63749;49.186;9.222;2023-09-12T00:45:07;21.83;;;10.67;;
75169;SDS011;63749;49.186;9.222;2023-09-12T00:47:34;19.85;;;10.63;;
75169;SDS011;63749;49.186;9.222;2023-09-12T00:50:01;21.40;;;10.70;;
75169;SDS011;63749;49.186;9.222;2023-09-12T00:52:29;21.37;;;10.30;;
75169;SDS011;63749;49.186;9.222;2023-09-12T00:54:57;21.25;;;10.38;;
75169;SDS011;63749;49.186;9.222;2023-09-12T00:57:23;21.97;;;10.40;;
75169;SDS011;63749;49.186;9.222;2023-09-12T00:59:49;18.02;;;10.02;;
75169;SDS011;63749;49.186;9.222;2023-09-12T01:02:14;21.92;;;10.02;;
75169;SDS011;63749;49.186;9.222;2023-09-12T01:04:43;21.63;;;10.13;;
75169;SDS011;63749;49.186;9.222;2023-09-12T01:07:09;18.90;;;10.60;;
75169;SDS011;63749;49.186;9.222;2023-09-12T01:09:34;21.10;;;10.40;;
75169;SDS011;63749;49.186;9.222;2023-09-12T01:12:00;25.03;;;9.90;;
75169;SDS011;63749;49.186;9.222;2023-09-12T01:14:29;19.93;;;10.23;;
75169;SDS011;63749;49.186;9.222;2023-09-12T01:16:55;17.98;;;10.00;;
75169;SDS011;63749;49.186;9.222;2023-09-12T01:19:21;24.45;;;10.10;;
75169;SDS011;63749;49.186;9.222;2023-09-12T01:27:33;21.30;;;10.68;;
75169;SDS011;63749;49.186;9.222;2023-09-12T01:30:01;20.80;;;11.13;;
75169;SDS011;63749;49.186;9.222;2023-09-12T01:32:29;21.63;;;11.43;;
75169;SDS011;63749;49.186;9.222;2023-09-12T01:34:56;21.00;;;10.35;;
75169;SDS011;63749;49.186;9.222;2023-09-12T01:37:21;18.73;;;9.67;;
75169;SDS011;63749;49.186;9.222;2023-09-12T01:39:47;20.98;;;9.95;;
75169;SDS011;63749;49.186;9.222;2023-09-12T01:42:16;19.70;;;9.20;;
75169;SDS011;63749;49.186;9.222;2023-09-12T01:44:45;18.83;;;9.00;;
75169;SDS011;63749;49.186;9.222;2023-09-12T01:47:11;21.75;;;9.48;;
75169;SDS011;63749;49.186;9.222;2023-09-12T01:49:39;18.67;;;9.33;;
75169;SDS011;63749;49.186;9.222;2023-09-12T01:52:07;17.90;;;8.93;;
75169;SDS011;63749;49.186;9.222;2023-09-12T01:54:33;17.48;;;8.93;;
75169;SDS011;63749;49.186;9.222;2023-09-12T01:56:59;17.80;;;9.32;;
75169;SDS011;63749;49.186;9.222;2023-09-12T01:59:26;19.15;;;9.05;;
75169;SDS011;63749;49.186;9.222;2023-09-12T02:01:51;19.87;;;9.63;;
75169;SDS011;63749;49.186;9.222;2023-09-12T02:04:17;17.97;;;9.07;;
75169;SDS011;63749;49.186;9.222;2023-09-12T02:06:42;20.57;;;9.33;;
75169;SDS011;63749;49.186;9.222;2023-09-12T02:09:07;20.42;;;9.10;;
75169;SDS011;63749;49.186;9.222;2023-09-12T02:11:33;19.07;;;9.40;;
75169;SDS011;63749;49.186;9.222;2023-09-12T02:13:58;16.13;;;9.37;;
75169;SDS011;63749;49.186;9.222;2023-09-12T02:16:23;16.67;;;9.03;;
75169;SDS011;63749;49.186;9.222;2023-09-12T02:18:49;17.80;;;9.40;;
75169;SDS011;63749;49.186;9.222;2023-09-12T02:21:14;18.50;;;9.70;;
75169;SDS011;63749;49.186;9.222;2023-09-12T02:23:41;19.37;;;9.87;;
75169;SDS011;63749;49.186;9.222;2023-09-12T02:26:06;20.75;;;9.52;;
75169;SDS011;63749;49.186;9.222;2023-09-12T02:28:32;20.83;;;10.37;;
75169;SDS011;63749;49.186;9.222;2023-09-12T02:30:57;19.40;;;9.97;;
75169;SDS011;63749;49.186;9.222;2023-09-12T02:33:22;22.17;;;10.02;;
75169;SDS011;63749;49.186;9.222;2023-09-12T02:35:48;18.87;;;9.30;;
75169;SDS011;63749;49.186;9.222;2023-09-12T02:38:14;17.23;;;9.80;;
75169;SDS011;63749;49.186;9.222;2023-09-12T02:40:39;18.50;;;9.73;;
75169;SDS011;63749;49.186;9.222;2023-09-12T02:43:04;19.33;;;9.63;;
75169;SDS011;63749;49.186;9.222;2023-09-12T02:45:30;22.73;;;9.60;;
75169;SDS011;63749;49.186;9.222;2023-09-12T02:47:55;18.00;;;9.90;;
75169;SDS011;63749;49.186;9.222;2023-09-12T02:50:21;18.80;;;9.20;;
75169;SDS011;63749;49.186;9.222;2023-09-12T02:52:46;21.13;;;9.48;;
75169;SDS011;63749;49.186;9.222;2023-09-12T02:55:11;22.03;;;9.33;;
75169;SDS011;63749;49.186;9.222;2023-09-12T02:57:37;15.57;;;8.70;;
75169;SDS011;63749;49.186;9.222;2023-09-12T03:00:02;20.37;;;8.77;;
75169;SDS011;63749;49.186;9.222;2023-09-12T03:02:31;17.17;;;8.60;;
75169;SDS011;63749;49.186;9.222;2023-09-12T03:04:56;18.43;;;8.70;;
75169;SDS011;63749;49.186;9.222;2023-09-12T03:07:22;16.25;;;8.68;;
75169;SDS011;63749;49.186;9.222;2023-09-12T03:09:50;17.57;;;8.63;;
75169;SDS011;63749;49.186;9.222;2023-09-12T03:12:15;18.55;;;8.95;;
75169;SDS011;63749;49.186;9.222;2023-09-12T03:14:41;20.47;;;8.60;;
75169;SDS011;63749;49.186;9.222;2023-09-12T03:17:06;15.27;;;8.23;;
75169;SDS011;63749;49.186;9.222;2023-09-12T03:19:32;20.40;;;8.93;;
75169;SDS011;63749;49.186;9.222;2023-09-12T03:21:57;15.33;;;8.63;;
75169;SDS011;63749;49.186;9.222;2023-09-12T03:24:22;19.77;;;9.00;;
75169;SDS011;63749;49.186;9.222;2023-09-12T03:26:50;21.13;;;9.00;;
75169;SDS011;63749;49.186;9.222;2023-09-12T03:29:15;17.10;;;9.23;;
75169;SDS011;63749;49.186;9.222;2023-09-12T03:31:41;16.65;;;8.70;;
75169;SDS011;63749;49.186;9.222;2023-09-12T03:34:06;21.33;;;9.00;;
75169;SDS011;63749;49.186;9.222;2023-09-12T03:36:32;18.77;;;8.67;;
75169;SDS011;63749;49.186;9.222;2023-09-12T03:38:57;16.30;;;8.50;;
75169;SDS011;63749;49.186;9.222;2023-09-12T03:41:22;14.50;;;8.73;;
75169;SDS011;63749;49.186;9.222;2023-09-12T03:43:50;17.40;;;9.00;;
75169;SDS011;63749;49.186;9.222;2023-09-12T03:46:19;15.75;;;8.40;;
75169;SDS011;63749;49.186;9.222;2023-09-12T03:48:45;19.35;;;8.88;;
75169;SDS011;63749;49.186;9.222;2023-09-12T03:51:11;19.10;;;9.07;;
75169;SDS011;63749;49.186;9.222;2023-09-12T03:53:36;17.23;;;8.90;;
75169;SDS011;63749;49.186;9.222;2023-09-12T03:56:01;19.02;;;9.15;;
75169;SDS011;63749;49.186;9.222;2023-09-12T03:58:27;18.10;;;9.20;;
75169;SDS011;63749;49.186;9.222;2023-09-12T04:00:52;19.60;;;8.73;;
75169;SDS011;63749;49.186;9.222;2023-09-12T04:03:17;19.67;;;8.87;;
75169;SDS011;63749;49.186;9.222;2023-09-12T04:05:43;18.97;;;8.90;;
75169;SDS011;63749;49.186;9.222;2023-09-12T04:08:08;18.00;;;8.25;;
75169;SDS011;63749;49.186;9.222;2023-09-12T04:10:34;18.13;;;8.80;;
75169;SDS011;63749;49.186;9.222;2023-09-12T04:12:59;14.40;;;8.90;;
75169;SDS011;63749;49.186;9.222;2023-09-12T04:15:24;15.93;;;8.43;;
75169;SDS011;63749;49.186;9.222;2023-09-12T04:17:51;22.23;;;8.70;;
75169;SDS011;63749;49.186;9.222;2023-09-12T04:20:18;15.60;;;8.67;;
75169;SDS011;63749;49.186;9.222;2023-09-12T04:22:43;17.50;;;9.00;;
75169;SDS011;63749;49.186;9.222;2023-09-12T04:25:08;21.73;;;8.90;;
75169;SDS011;63749;49.186;9.222;2023-09-12T04:27:34;17.27;;;8.90;;
75169;SDS011;63749;49.186;9.222;2023-09-12T04:29:59;22.43;;;9.07;;
75169;SDS011;63749;49.186;9.222;2023-09-12T04:32:25;17.83;;;8.27;;
75169;SDS011;63749;49.186;9.222;2023-09-12T04:34:50;17.17;;;9.00;;
75169;SDS011;63749;49.186;9.222;2023-09-12T04:37:15;18.57;;;8.53;;
75169;SDS011;63749;49.186;9.222;2023-09-12T04:39:41;19.30;;;8.73;;
75169;SDS011;63749;49.186;9.222;2023-09-12T04:42:07;14.18;;;8.32;;
75169;SDS011;63749;49.186;9.222;2023-09-12T04:44:39;19.40;;;8.50;;
75169;SDS011;63749;49.186;9.222;2023-09-12T04:47:05;20.73;;;8.98;;
75169;SDS011;63749;49.186;9.222;2023-09-12T04:49:31;21.53;;;8.30;;
75169;SDS011;63749;49.186;9.222;2023-09-12T04:51:56;19.77;;;8.40;;
75169;SDS011;63749;49.186;9.222;2023-09-12T04:54:21;18.77;;;8.23;;
75169;SDS011;63749;49.186;9.222;2023-09-12T04:56:47;21.98;;;8.93;;
75169;SDS011;63749;49.186;9.222;2023-09-12T04:59:12;16.73;;;8.70;;
75169;SDS011;63749;49.186;9.222;2023-09-12T05:01:38;18.60;;;8.27;;
75169;SDS011;63749;49.186;9.222;2023-09-12T05:04:03;16.13;;;8.30;;
75169;SDS011;63749;49.186;9.222;2023-09-12T05:06:29;18.85;;;8.40;;
75169;SDS011;63749;49.186;9.222;2023-09-12T05:08:54;17.83;;;7.97;;
75169;SDS011;63749;49.186;9.222;2023-09-12T05:11:21;13.73;;;7.87;;
75169;SDS011;63749;49.186;9.222;2023-09-12T05:13:48;16.77;;;8.13;;
75169;SDS011;63749;49.186;9.222;2023-09-12T05:16:13;13.10;;;7.67;;
75169;SDS011;63749;49.186;9.222;2023-09-12T05:18:40;15.40;;;7.65;;
75169;SDS011;63749;49.186;9.222;2023-09-12T05:21:05;18.00;;;8.23;;
75169;SDS011;63749;49.186;9.222;2023-09-12T05:23:31;19.55;;;8.90;;
75169;SDS011;63749;49.186;9.222;2023-09-12T05:25:56;18.20;;;8.13;;
75169;SDS011;63749;49.186;9.222;2023-09-12T05:28:22;19.07;;;8.23;;
75169;SDS011;63749;49.186;9.222;2023-09-12T05:30:47;17.60;;;8.53;;
75169;SDS011;63749;49.186;9.222;2023-09-12T05:33:12;20.05;;;8.60;;
75169;SDS011;63749;49.186;9.222;2023-09-12T05:35:38;15.10;;;8.60;;
75169;SDS011;63749;49.186;9.222;2023-09-12T05:38:03;17.77;;;8.40;;
75169;SDS011;63749;49.186;9.222;2023-09-12T05:40:29;18.97;;;8.60;;
75169;SDS011;63749;49.186;9.222;2023-09-12T05:42:56;21.02;;;8.60;;
75169;SDS011;63749;49.186;9.222;2023-09-12T05:45:22;20.03;;;8.33;;
75169;SDS011;63749;49.186;9.222;2023-09-12T05:47:48;17.85;;;8.35;;
75169;SDS011;63749;49.186;9.222;2023-09-12T05:50:15;20.92;;;8.63;;
75169;SDS011;63749;49.186;9.222;2023-09-12T05:52:40;15.73;;;8.40;;
75169;SDS011;63749;49.186;9.222;2023-09-12T05:55:07;20.15;;;8.32;;
75169;SDS011;63749;49.186;9.222;2023-09-12T05:57:33;18.77;;;8.38;;
75169;SDS011;63749;49.186;9.222;2023-09-12T05:59:59;17.93;;;8.80;;
75169;SDS011;63749;49.186;9.222;2023-09-12T06:02:25;17.10;;;8.50;;
75169;SDS011;63749;49.186;9.222;2023-09-12T06:04:50;21.40;;;8.93;;
75169;SDS011;63749;49.186;9.222;2023-09-12T06:07:16;21.87;;;10.00;;
75169;SDS011;63749;49.186;9.222;2023-09-12T06:09:41;17.30;;;8.98;;
75169;SDS011;63749;49.186;9.222;2023-09-12T06:12:07;20.60;;;8.80;;
75169;SDS011;63749;49.186;9.222;2023-09-12T06:14:32;21.27;;;8.97;;
75169;SDS011;63749;49.186;9.222;2023-09-12T06:16:58;22.20;;;8.57;;
75169;SDS011;63749;49.186;9.222;2023-09-12T06:19:23;16.47;;;8.33;;
75169;SDS011;63749;49.186;9.222;2023-09-12T06:21:49;19.52;;;8.43;;
75169;SDS011;63749;49.186;9.222;2023-09-12T06:24:15;19.47;;;8.00;;
75169;SDS011;63749;49.186;9.222;2023-09-12T06:26:42;21.58;;;8.77;;
75169;SDS011;63749;49.186;9.222;2023-09-12T06:29:08;27.30;;;8.97;;
75169;SDS011;63749;49.186;9.222;2023-09-12T06:31:33;18.52;;;8.90;;
75169;SDS011;63749;49.186;9.222;2023-09-12T06:34:00;17.80;;;8.85;;
75169;SDS011;63749;49.186;9.222;2023-09-12T06:36:26;19.33;;;8.60;;
75169;SDS011;63749;49.186;9.222;2023-09-12T06:38:52;19.58;;;9.25;;
75169;SDS011;63749;49.186;9.222;2023-09-12T06:41:20;21.87;;;8.93;;
75169;SDS011;63749;49.186;9.222;2023-09-12T06:43:45;21.10;;;8.68;;
75169;SDS011;63749;49.186;9.222;2023-09-12T06:46:11;20.98;;;9.05;;
75169;SDS011;63749;49.186;9.222;2023-09-12T06:48:36;17.73;;;8.73;;
75169;SDS011;63749;49.186;9.222;2023-09-12T06:51:04;18.33;;;9.00;;
75169;SDS011;63749;49.186;9.222;2023-09-12T06:53:30;25.58;;;8.63;;
75169;SDS011;63749;49.186;9.222;2023-09-12T06:55:55;24.83;;;10.13;;
75169;SDS011;63749;49.186;9.222;2023-09-12T06:58:22;22.70;;;9.18;;
75169;SDS011;63749;49.186;9.222;2023-09-12T07:00:48;24.93;;;9.40;;
75169;SDS011;63749;49.186;9.222;2023-09-12T07:03:13;25.33;;;9.53;;
75169;SDS011;63749;49.186;9.222;2023-09-12T07:05:38;22.97;;;9.83;;
75169;SDS011;63749;49.186;9.222;2023-09-12T07:08:05;27.67;;;9.73;;
75169;SDS011;63749;49.186;9.222;2023-09-12T07:10:30;26.87;;;10.17;;
75169;SDS011;63749;49.186;9.222;2023-09-12T07:12:55;32.93;;;10.17;;
75169;SDS011;63749;49.186;9.222;2023-09-12T07:15:21;29.43;;;10.67;;
75169;SDS011;63749;49.186;9.222;2023-09-12T07:17:46;22.07;;;9.67;;
75169;SDS011;63749;49.186;9.222;2023-09-12T07:20:12;28.77;;;10.25;;
75169;SDS011;63749;49.186;9.222;2023-09-12T07:22:38;26.93;;;9.97;;
75169;SDS011;63749;49.186;9.222;2023-09-12T07:25:07;22.23;;;9.52;;
75169;SDS011;63749;49.186;9.222;2023-09-12T07:27:34;25.80;;;8.85;;
75169;SDS011;63749;49.186;9.222;2023-09-12T07:29:59;24.90;;;9.60;;
75169;SDS011;63749;49.186;9.222;2023-09-12T07:32:25;28.87;;;9.97;;
75169;SDS011;63749;49.186;9.222;2023-09-12T07:34:50;23.83;;;9.43;;
75169;SDS011;63749;49.186;9.222;2023-09-12T07:37:15;23.40;;;9.20;;
75169;SDS011;63749;49.186;9.222;2023-09-12T07:39:41;22.77;;;8.80;;
75169;SDS011;63749;49.186;9.222;2023-09-12T07:42:06;23.08;;;9.18;;
75169;SDS011;63749;49.186;9.222;2023-09-12T07:44:31;21.33;;;9.03;;
75169;SDS011;63749;49.186;9.222;2023-09-12T07:46:57;30.47;;;9.60;;
75169;SDS011;63749;49.186;9.222;2023-09-12T07:49:22;28.77;;;9.33;;
75169;SDS011;63749;49.186;9.222;2023-09-12T07:51:51;31.23;;;9.32;;
75169;SDS011;63749;49.186;9.222;2023-09-12T07:54:16;29.03;;;9.83;;
75169;SDS011;63749;49.186;9.222;2023-09-12T07:56:42;24.35;;;9.60;;
75169;SDS011;63749;49.186;9.222;2023-09-12T07:59:08;32.17;;;10.00;;
75169;SDS011;63749;49.186;9.222;2023-09-12T08:01:35;30.27;;;10.30;;
75169;SDS011;63749;49.186;9.222;2023-09-12T08:04:00;39.13;;;10.70;;
75169;SDS011;63749;49.186;9.222;2023-09-12T08:06:25;40.13;;;10.27;;
75169;SDS011;63749;49.186;9.222;2023-09-12T08:08:51;42.33;;;10.60;;
75169;SDS011;63749;49.186;9.222;2023-09-12T08:11:17;37.60;;;11.30;;
75169;SDS011;63749;49.186;9.222;2023-09-12T08:13:42;38.43;;;10.60;;
75169;SDS011;63749;49.186;9.222;2023-09-12T08:16:07;48.63;;;11.37;;
75169;SDS011;63749;49.186;9.222;2023-09-12T08:18:33;39.97;;;11.10;;
75169;SDS011;63749;49.186;9.222;2023-09-12T08:20:58;37.07;;;10.47;;
75169;SDS011;63749;49.186;9.222;2023-09-12T08:23:24;34.65;;;11.05;;
75169;SDS011;63749;49.186;9.222;2023-09-12T08:25:49;32.67;;;11.30;;
75169;SDS011;63749;49.186;9.222;2023-09-12T08:28:14;34.97;;;10.93;;
75169;SDS011;63749;49.186;9.222;2023-09-12T08:30:40;31.70;;;11.23;;
75169;SDS011;63749;49.186;9.222;2023-09-12T08:33:05;33.90;;;11.30;;
75169;SDS011;63749;49.186;9.222;2023-09-12T08:35:32;30.95;;;10.70;;
75169;SDS011;63749;49.186;9.222;2023-09-12T08:37:57;31.27;;;11.35;;
75169;SDS011;63749;49.186;9.222;2023-09-12T08:40:23;29.63;;;10.97;;
75169;SDS011;63749;49.186;9.222;2023-09-12T08:42:48;24.50;;;9.73;;
75169;SDS011;63749;49.186;9.222;2023-09-12T08:45:17;30.50;;;10.43;;
75169;SDS011;63749;49.186;9.222;2023-09-12T08:47:44;29.33;;;10.32;;
75169;SDS011;63749;49.186;9.222;2023-09-12T08:50:11;29.42;;;9.98;;
75169;SDS011;63749;49.186;9.222;2023-09-12T08:52:41;33.22;;;10.45;;
75169;SDS011;63749;49.186;9.222;2023-09-12T08:55:08;29.85;;;10.80;;
75169;SDS011;63749;49.186;9.222;2023-09-12T08:57:36;29.40;;;11.20;;
75169;SDS011;63749;49.186;9.222;2023-09-12T09:00:03;27.70;;;10.38;;
75169;SDS011;63749;49.186;9.222;2023-09-12T09:02:31;25.48;;;10.10;;
75169;SDS011;63749;49.186;9.222;2023-09-12T09:04:58;22.88;;;10.13;;
75169;SDS011;63749;49.186;9.222;2023-09-12T09:07:25;27.90;;;9.93;;
75169;SDS011;63749;49.186;9.222;2023-09-12T09:09:52;33.53;;;9.90;;
75169;SDS011;63749;49.186;9.222;2023-09-12T09:12:18;20.08;;;9.68;;
75169;SDS011;63749;49.186;9.222;2023-09-12T09:14:44;23.67;;;9.90;;
75169;SDS011;63749;49.186;9.222;2023-09-12T09:17:10;17.23;;;9.40;;
75169;SDS011;63749;49.186;9.222;2023-09-12T09:19:44;21.35;;;9.52;;
75169;SDS011;63749;49.186;9.222;2023-09-12T09:22:10;18.35;;;9.43;;
75169;SDS011;63749;49.186;9.222;2023-09-12T09:24:36;20.60;;;9.30;;
75169;SDS011;63749;49.186;9.222;2023-09-12T09:27:01;18.33;;;9.67;;
75169;SDS011;63749;49.186;9.222;2023-09-12T09:29:27;22.45;;;9.82;;
75169;SDS011;63749;49.186;9.222;2023-09-12T09:31:58;17.92;;;9.40;;
75169;SDS011;63749;49.186;9.222;2023-09-12T09:34:26;18.30;;;9.27;;
75169;SDS011;63749;49.186;9.222;2023-09-12T09:36:54;17.85;;;9.48;;
75169;SDS011;63749;49.186;9.222;2023-09-12T09:39:25;20.42;;;9.18;;
75169;SDS011;63749;49.186;9.222;2023-09-12T09:41:52;18.98;;;9.00;;
75169;SDS011;63749;49.186;9.222;2023-09-12T09:44:20;22.08;;;9.20;;
75169;SDS011;63749;49.186;9.222;2023-09-12T09:46:50;23.67;;;10.27;;
75169;SDS011;63749;49.186;9.222;2023-09-12T09:49:18;16.88;;;8.68;;
75169;SDS011;63749;49.186;9.222;2023-09-12T09:51:44;19.73;;;9.07;;
75169;SDS011;63749;49.186;9.222;2023-09-12T09:54:13;18.37;;;9.00;;
75169;SDS011;63749;49.186;9.222;2023-09-12T09:56:46;22.60;;;9.27;;
75169;SDS011;63749;49.186;9.222;2023-09-12T09:59:16;15.65;;;9.10;;
75169;SDS011;63749;49.186;9.222;2023-09-12T10:01:43;20.52;;;8.77;;
75169;SDS011;63749;49.186;9.222;2023-09-12T10:04:10;20.10;;;8.80;;
75169;SDS011;63749;49.186;9.222;2023-09-12T10:06:36;16.50;;;9.23;;
75169;SDS011;63749;49.186;9.222;2023-09-12T10:09:04;19.30;;;8.80;;
75169;SDS011;63749;49.186;9.222;2023-09-12T10:11:32;16.00;;;9.00;;
75169;SDS011;63749;49.186;9.222;2023-09-12T10:14:00;14.45;;;8.50;;
75169;SDS011;63749;49.186;9.222;2023-09-12T10:21:41;14.50;;;8.95;;
75169;SDS011;63749;49.186;9.222;2023-09-12T10:24:13;15.57;;;8.93;;
75169;SDS011;63749;49.186;9.222;2023-09-12T10:26:39;14.65;;;8.88;;
75169;SDS011;63749;49.186;9.222;2023-09-12T10:29:10;14.93;;;8.83;;
75169;SDS011;63749;49.186;9.222;2023-09-12T10:31:37;17.88;;;8.93;;
75169;SDS011;63749;49.186;9.222;2023-09-12T10:34:03;18.35;;;9.20;;
75169;SDS011;63749;49.186;9.222;2023-09-12T10:36:31;13.17;;;8.60;;
75169;SDS011;63749;49.186;9.222;2023-09-12T10:38:57;14.88;;;8.68;;
75169;SDS011;63749;49.186;9.222;2023-09-12T10:41:24;16.48;;;9.00;;
75169;SDS011;63749;49.186;9.222;2023-09-12T10:43:50;17.42;;;8.70;;
75169;SDS011;63749;49.186;9.222;2023-09-12T10:46:18;15.63;;;8.60;;
75169;SDS011;63749;49.186;9.222;2023-09-12T10:48:43;13.63;;;8.30;;
75169;SDS011;63749;49.186;9.222;2023-09-12T10:51:09;16.63;;;8.80;;
75169;SDS011;63749;49.186;9.222;2023-09-12T10:53:35;18.67;;;8.60;;
75169;SDS011;63749;49.186;9.222;2023-09-12T10:56:22;16.05;;;8.32;;
75169;SDS011;63749;49.186;9.222;2023-09-12T11:01:35;18.73;;;8.90;;
75169;SDS011;63749;49.186;9.222;2023-09-12T11:04:50;16.25;;;8.25;;
75169;SDS011;63749;49.186;9.222;2023-09-12T11:06:53;12.30;;;8.55;;
75169;SDS011;63749;49.186;9.222;2023-09-12T11:09:24;14.73;;;8.38;;
75169;SDS011;63749;49.186;9.222;2023-09-12T11:12:02;14.90;;;8.55;;
75169;SDS011;63749;49.186;9.222;2023-09-12T11:14:28;11.53;;;8.10;;
75169;SDS011;63749;49.186;9.222;2023-09-12T11:19:42;13.68;;;8.30;;
75169;SDS011;63749;49.186;9.222;2023-09-12T11:22:34;13.77;;;8.57;;
75169;SDS011;63749;49.186;9.222;2023-09-12T11:25:03;11.75;;;7.88;;
75169;SDS011;63749;49.186;9.222;2023-09-12T11:27:31;16.40;;;8.50;;
75169;SDS011;63749;49.186;9.222;2023-09-12T11:30:05;13.40;;;7.43;;
75169;SDS011;63749;49.186;9.222;2023-09-12T11:32:32;16.33;;;7.82;;
75169;SDS011;63749;49.186;9.222;2023-09-12T11:35:04;18.25;;;7.45;;
75169;SDS011;63749;49.186;9.222;2023-09-12T11:37:31;12.95;;;7.60;;
75169;SDS011;63749;49.186;9.222;2023-09-12T11:39:58;16.70;;;8.10;;
75169;SDS011;63749;49.186;9.222;2023-09-12T11:42:23;20.38;;;8.30;;
75169;SDS011;63749;49.186;9.222;2023-09-12T11:44:50;16.80;;;7.90;;
75169;SDS011;63749;49.186;9.222;2023-09-12T11:47:16;16.20;;;7.70;;
75169;SDS011;63749;49.186;9.222;2023-09-12T11:49:42;13.70;;;8.00;;
75169;SDS011;63749;49.186;9.222;2023-09-12T11:52:14;19.50;;;7.63;;
75169;SDS011;63749;49.186;9.222;2023-09-12T11:54:44;14.70;;;7.70;;
75169;SDS011;63749;49.186;9.222;2023-09-12T11:57:11;16.40;;;7.90;;
75169;SDS011;63749;49.186;9.222;2023-09-12T11:59:39;13.70;;;7.93;;
75169;SDS011;63749;49.186;9.222;2023-09-12T12:02:08;15.68;;;7.70;;
75169;SDS011;63749;49.186;9.222;2023-09-12T12:04:34;13.50;;;7.75;;
75169;SDS011;63749;49.186;9.222;2023-09-12T12:07:01;15.82;;;7.40;;
75169;SDS011;63749;49.186;9.222;2023-09-12T12:09:26;14.32;;;7.82;;
75169;SDS011;63749;49.186;9.222;2023-09-12T12:11:52;12.70;;;6.90;;
75169;SDS011;63749;49.186;9.222;2023-09-12T12:14:17;14.93;;;7.57;;
75169;SDS011;63749;49.186;9.222;2023-09-12T12:16:45;11.32;;;7.03;;
75169;SDS011;63749;49.186;9.222;2023-09-12T12:19:11;14.50;;;7.05;;
75169;SDS011;63749;49.186;9.222;2023-09-12T12:21:40;12.68;;;7.32;;
75169;SDS011;63749;49.186;9.222;2023-09-12T12:24:15;12.80;;;6.90;;
75169;SDS011;63749;49.186;9.222;2023-09-12T12:26:42;12.57;;;7.00;;
75169;SDS011;63749;49.186;9.222;2023-09-12T12:29:08;10.77;;;6.80;;
75169;SDS011;63749;49.186;9.222;2023-09-12T12:31:35;12.95;;;6.72;;
75169;SDS011;63749;49.186;9.222;2023-09-12T12:34:00;9.33;;;6.60;;
75169;SDS011;63749;49.186;9.222;2023-09-12T12:36:26;14.73;;;7.70;;
75169;SDS011;63749;49.186;9.222;2023-09-12T12:38:52;11.97;;;6.47;;
75169;SDS011;63749;49.186;9.222;2023-09-12T12:41:22;12.23;;;6.80;;
75169;SDS011;63749;49.186;9.222;2023-09-12T12:43:50;11.90;;;6.75;;
75169;SDS011;63749;49.186;9.222;2023-09-12T12:46:20;9.50;;;6.40;;
75169;SDS011;63749;49.186;9.222;2023-09-12T12:48:46;13.30;;;6.55;;
75169;SDS011;63749;49.186;9.222;2023-09-12T12:51:16;11.97;;;6.70;;
75169;SDS011;63749;49.186;9.222;2023-09-12T12:53:42;11.20;;;6.82;;
75169;SDS011;63749;49.186;9.222;2023-09-12T12:56:14;12.80;;;7.30;;
75169;SDS011;63749;49.186;9.222;2023-09-12T12:58:54;11.27;;;7.38;;
75169;SDS011;63749;49.186;9.222;2023-09-12T13:01:22;12.87;;;7.97;;
75169;SDS011;63749;49.186;9.222;2023-09-12T13:03:47;10.02;;;7.80;;
75169;SDS011;63749;49.186;9.222;2023-09-12T13:06:15;12.57;;;7.72;;
75169;SDS011;63749;49.186;9.222;2023-09-12T13:08:42;10.30;;;7.05;;
75169;SDS011;63749;49.186;9.222;2023-09-12T13:11:09;10.07;;;6.97;;
75169;SDS011;63749;49.186;9.222;2023-09-12T13:13:36;11.30;;;7.35;;
75169;SDS011;63749;49.186;9.222;2023-09-12T13:16:03;14.20;;;6.47;;
75169;SDS011;63749;49.186;9.222;2023-09-12T13:18:30;18.20;;;6.65;;
75169;SDS011;63749;49.186;9.222;2023-09-12T13:20:59;10.18;;;6.03;;
75169;SDS011;63749;49.186;9.222;2023-09-12T13:23:24;10.17;;;6.63;;
75169;SDS011;63749;49.186;9.222;2023-09-12T13:25:50;17.07;;;6.70;;
75169;SDS011;63749;49.186;9.222;2023-09-12T13:28:16;16.17;;;7.55;;
75169;SDS011;63749;49.186;9.222;2023-09-12T13:30:42;20.83;;;7.68;;
75169;SDS011;63749;49.186;9.222;2023-09-12T13:33:07;14.27;;;7.67;;
75169;SDS011;63749;49.186;9.222;2023-09-12T13:35:32;11.37;;;7.43;;
75169;SDS011;63749;49.186;9.222;2023-09-12T13:37:58;15.23;;;7.60;;
75169;SDS011;63749;49.186;9.222;2023-09-12T13:40:23;11.00;;;7.00;;
75169;SDS011;63749;49.186;9.222;2023-09-12T13:42:48;11.43;;;7.10;;
75169;SDS011;63749;49.186;9.222;2023-09-12T13:45:14;13.17;;;6.90;;
75169;SDS011;63749;49.186;9.222;2023-09-12T13:47:39;13.17;;;7.03;;
75169;SDS011;63749;49.186;9.222;2023-09-12T13:50:05;15.43;;;7.13;;
75169;SDS011;63749;49.186;9.222;2023-09-12T13:52:30;14.60;;;7.13;;
75169;SDS011;63749;49.186;9.222;2023-09-12T13:54:56;9.90;;;7.53;;
75169;SDS011;63749;49.186;9.222;2023-09-12T13:57:21;13.17;;;7.00;;
75169;SDS011;63749;49.186;9.222;2023-09-12T13:59:46;8.50;;;6.70;;
75169;SDS011;63749;49.186;9.222;2023-09-12T14:02:12;10.53;;;6.93;;
75169;SDS011;63749;49.186;9.222;2023-09-12T14:04:37;10.60;;;6.77;;
75169;SDS011;63749;49.186;9.222;2023-09-12T14:07:03;10.25;;;6.15;;
75169;SDS011;63749;49.186;9.222;2023-09-12T14:09:28;12.90;;;6.20;;
75169;SDS011;63749;49.186;9.222;2023-09-12T14:11:54;12.40;;;6.40;;
75169;SDS011;63749;49.186;9.222;2023-09-12T14:14:19;13.07;;;7.00;;
75169;SDS011;63749;49.186;9.222;2023-09-12T14:16:45;9.57;;;6.60;;
75169;SDS011;63749;49.186;9.222;2023-09-12T14:19:11;10.43;;;6.70;;
75169;SDS011;63749;49.186;9.222;2023-09-12T14:21:36;12.55;;;6.85;;
75169;SDS011;63749;49.186;9.222;2023-09-12T14:24:02;10.70;;;7.20;;
75169;SDS011;63749;49.186;9.222;2023-09-12T14:26:28;11.05;;;6.75;;
75169;SDS011;63749;49.186;9.222;2023-09-12T14:28:53;11.50;;;7.03;;
75169;SDS011;63749;49.186;9.222;2023-09-12T14:31:20;10.57;;;7.03;;
75169;SDS011;63749;49.186;9.222;2023-09-12T14:33:47;13.48;;;6.70;;
75169;SDS011;63749;49.186;9.222;2023-09-12T14:36:13;13.77;;;6.97;;
75169;SDS011;63749;49.186;9.222;2023-09-12T14:38:38;8.67;;;6.40;;
75169;SDS011;63749;49.186;9.222;2023-09-12T14:41:03;8.47;;;7.10;;
75169;SDS011;63749;49.186;9.222;2023-09-12T14:43:29;8.32;;;6.47;;
75169;SDS011;63749;49.186;9.222;2023-09-12T14:45:54;9.30;;;6.90;;